AAL2031 KBOS-KRDU
Flight info
| Callsign | AAL2031 |
|---|---|
| Flight time | 1h 38m |
| Altitude | 32000 |
| Route | SSOXS7 SSOXS Q167 ZJAAY TAQLE3 |
| Aircraft | B738/M-SDE2E3FGHIRWXY/LB1 |
Departure
| Time | 2026-05-07 02:05 |
|---|---|
| Airport | Boston Logan International Airport (KBOS) |
Arrival
| Time | 2026-05-07 03:43 |
|---|---|
| Airport | Raleigh-Durham International Airport (KRDU) |
| Time | Latitude | Longitude | Altitude | Speed | Heading |
|---|---|---|---|---|---|
| 2026-05-07 01:35 | 42.36511 | -71.01442 | 23 ft | 0 kts | 322° |
| 2026-05-07 01:54 | 42.36500 | -71.01431 | 24 ft | 4 kts | 321° |
| 2026-05-07 01:54 | 42.36479 | -71.01408 | 24 ft | 4 kts | 323° |
| 2026-05-07 01:55 | 42.36457 | -71.01388 | 26 ft | 4 kts | 337° |
| 2026-05-07 01:55 | 42.36435 | -71.01382 | 25 ft | 1 kts | 19° |
| 2026-05-07 01:55 | 42.36434 | -71.01383 | 25 ft | 0 kts | 20° |
| 2026-05-07 01:58 | 42.36448 | -71.01376 | 26 ft | 5 kts | 21° |
| 2026-05-07 01:58 | 42.36495 | -71.01349 | 25 ft | 10 kts | 25° |
| 2026-05-07 01:59 | 42.36578 | -71.01296 | 25 ft | 16 kts | 23° |
| 2026-05-07 01:59 | 42.36695 | -71.01248 | 30 ft | 17 kts | 15° |
| 2026-05-07 01:59 | 42.36788 | -71.01266 | 25 ft | 11 kts | 324° |
| 2026-05-07 01:59 | 42.36858 | -71.01254 | 25 ft | 11 kts | 41° |
| 2026-05-07 02:00 | 42.36923 | -71.01178 | 24 ft | 13 kts | 40° |
| 2026-05-07 02:00 | 42.37004 | -71.01098 | 23 ft | 16 kts | 31° |
| 2026-05-07 02:00 | 42.37109 | -71.01027 | 21 ft | 18 kts | 25° |
| 2026-05-07 02:00 | 42.37218 | -71.00958 | 21 ft | 17 kts | 26° |
| 2026-05-07 02:01 | 42.37327 | -71.00893 | 22 ft | 17 kts | 20° |
| 2026-05-07 02:01 | 42.37437 | -71.00837 | 22 ft | 17 kts | 20° |
| 2026-05-07 02:01 | 42.37544 | -71.00788 | 24 ft | 16 kts | 19° |
| 2026-05-07 02:01 | 42.37616 | -71.00744 | 27 ft | 7 kts | 44° |
| 2026-05-07 02:02 | 42.37620 | -71.00679 | 25 ft | 6 kts | 107° |
| 2026-05-07 02:02 | 42.37619 | -71.00672 | 25 ft | 0 kts | 108° |
| 2026-05-07 02:02 | 42.37618 | -71.00672 | 25 ft | 1 kts | 108° |
| 2026-05-07 02:03 | 42.37608 | -71.00625 | 25 ft | 6 kts | 99° |
| 2026-05-07 02:03 | 42.37599 | -71.00581 | 29 ft | 4 kts | 150° |
| 2026-05-07 02:03 | 42.37564 | -71.00582 | 29 ft | 6 kts | 198° |
| 2026-05-07 02:03 | 42.37561 | -71.00584 | 28 ft | 0 kts | 199° |
| 2026-05-07 02:04 | 42.37534 | -71.00597 | 24 ft | 15 kts | 199° |
| 2026-05-07 02:04 | 42.37207 | -71.00753 | 18 ft | 85 kts | 200° |
| 2026-05-07 02:04 | 42.36451 | -71.01118 | 27 ft | 143 kts | 200° |
| 2026-05-07 02:05 | 42.35418 | -71.01624 | 425 ft | 160 kts | 199° |
| 2026-05-07 02:05 | 42.34327 | -71.01695 | 1211 ft | 171 kts | 168° |
| 2026-05-07 02:05 | 42.33262 | -71.00644 | 1555 ft | 214 kts | 137° |
| 2026-05-07 02:05 | 42.32331 | -70.98967 | 1946 ft | 233 kts | 131° |
| 2026-05-07 02:06 | 42.31668 | -70.96857 | 2372 ft | 257 kts | 108° |
| 2026-05-07 02:06 | 42.31295 | -70.94531 | 3142 ft | 251 kts | 104° |
| 2026-05-07 02:06 | 42.31300 | -70.92113 | 3409 ft | 277 kts | 75° |
| 2026-05-07 02:06 | 42.31861 | -70.89527 | 3906 ft | 293 kts | 75° |
| 2026-05-07 02:07 | 42.32355 | -70.86833 | 4609 ft | 300 kts | 78° |
| 2026-05-07 02:07 | 42.33158 | -70.81286 | 4979 ft | 304 kts | 88° |
| 2026-05-07 02:07 | 42.32838 | -70.78527 | 5003 ft | 295 kts | 115° |
| 2026-05-07 02:08 | 42.32010 | -70.75990 | 4995 ft | 296 kts | 120° |
| 2026-05-07 02:08 | 42.31117 | -70.73466 | 4987 ft | 297 kts | 120° |
| 2026-05-07 02:08 | 42.30237 | -70.70957 | 4977 ft | 294 kts | 120° |
| 2026-05-07 02:08 | 42.29093 | -70.68756 | 4976 ft | 280 kts | 147° |
| 2026-05-07 02:09 | 42.27462 | -70.67437 | 4996 ft | 269 kts | 164° |
| 2026-05-07 02:09 | 42.25717 | -70.66584 | 5003 ft | 266 kts | 169° |
| 2026-05-07 02:09 | 42.23952 | -70.65822 | 5000 ft | 266 kts | 169° |
| 2026-05-07 02:09 | 42.22182 | -70.65056 | 4995 ft | 268 kts | 168° |
| 2026-05-07 02:10 | 42.20397 | -70.64263 | 5217 ft | 273 kts | 168° |
| 2026-05-07 02:10 | 42.18620 | -70.63459 | 6071 ft | 273 kts | 168° |
| 2026-05-07 02:10 | 42.16813 | -70.62635 | 6899 ft | 275 kts | 168° |
| 2026-05-07 02:10 | 42.14994 | -70.61818 | 7698 ft | 274 kts | 172° |
| 2026-05-07 02:11 | 42.13148 | -70.61697 | 8423 ft | 262 kts | 198° |
| 2026-05-07 02:11 | 42.11400 | -70.62340 | 9222 ft | 260 kts | 204° |
| 2026-05-07 02:11 | 42.09674 | -70.63109 | 9995 ft | 262 kts | 205° |
| 2026-05-07 02:11 | 42.07913 | -70.63914 | 10476 ft | 276 kts | 205° |
| 2026-05-07 02:12 | 42.06672 | -70.64484 | 10579 ft | 292 kts | 205° |
| 2026-05-07 02:12 | 42.04676 | -70.65392 | 10759 ft | 314 kts | 204° |
| 2026-05-07 02:12 | 42.02526 | -70.66357 | 10921 ft | 335 kts | 204° |
| 2026-05-07 02:12 | 42.00241 | -70.67371 | 11073 ft | 355 kts | 204° |
| 2026-05-07 02:13 | 41.97845 | -70.68424 | 11400 ft | 366 kts | 203° |
| 2026-05-07 02:13 | 41.95410 | -70.69484 | 12013 ft | 368 kts | 204° |
| 2026-05-07 02:13 | 41.92976 | -70.70543 | 12691 ft | 369 kts | 204° |
| 2026-05-07 02:13 | 41.90529 | -70.71613 | 13295 ft | 372 kts | 204° |
| 2026-05-07 02:14 | 41.88060 | -70.72694 | 13863 ft | 374 kts | 204° |
| 2026-05-07 02:14 | 41.85605 | -70.73767 | 14384 ft | 377 kts | 204° |
| 2026-05-07 02:14 | 41.83128 | -70.74921 | 14901 ft | 376 kts | 208° |
| 2026-05-07 02:14 | 41.80809 | -70.76537 | 15410 ft | 375 kts | 214° |
| 2026-05-07 02:15 | 41.78549 | -70.78308 | 15868 ft | 378 kts | 214° |
| 2026-05-07 02:15 | 41.76268 | -70.80098 | 16303 ft | 382 kts | 214° |
| 2026-05-07 02:15 | 41.73957 | -70.81884 | 16771 ft | 385 kts | 214° |
| 2026-05-07 02:15 | 41.71624 | -70.83661 | 17256 ft | 387 kts | 213° |
| 2026-05-07 02:16 | 41.69270 | -70.85436 | 17723 ft | 389 kts | 213° |
| 2026-05-07 02:16 | 41.66903 | -70.87212 | 18138 ft | 392 kts | 213° |
| 2026-05-07 02:16 | 41.64509 | -70.89004 | 18540 ft | 395 kts | 214° |
| 2026-05-07 02:16 | 41.62110 | -70.90797 | 18916 ft | 397 kts | 214° |
| 2026-05-07 02:17 | 41.59716 | -70.92584 | 19257 ft | 399 kts | 215° |
| 2026-05-07 02:17 | 41.57284 | -70.94476 | 19634 ft | 398 kts | 219° |
| 2026-05-07 02:17 | 41.55139 | -70.96767 | 20062 ft | 393 kts | 227° |
| 2026-05-07 02:17 | 41.53231 | -70.99360 | 20490 ft | 390 kts | 233° |
| 2026-05-07 02:18 | 41.51637 | -71.02199 | 20896 ft | 386 kts | 240° |
| 2026-05-07 02:18 | 41.50166 | -71.05196 | 21305 ft | 387 kts | 240° |
| 2026-05-07 02:18 | 41.48684 | -71.08197 | 21695 ft | 387 kts | 240° |
| 2026-05-07 02:18 | 41.47192 | -71.11201 | 22084 ft | 388 kts | 241° |
| 2026-05-07 02:19 | 41.45698 | -71.14197 | 22461 ft | 388 kts | 241° |
| 2026-05-07 02:19 | 41.44195 | -71.17200 | 22712 ft | 391 kts | 241° |
| 2026-05-07 02:19 | 41.42679 | -71.20224 | 22934 ft | 394 kts | 241° |
| 2026-05-07 02:19 | 41.41151 | -71.23266 | 23286 ft | 394 kts | 241° |
| 2026-05-07 02:20 | 41.39622 | -71.26305 | 23619 ft | 394 kts | 241° |
| 2026-05-07 02:20 | 41.38095 | -71.29339 | 23863 ft | 395 kts | 241° |
| 2026-05-07 02:20 | 41.36580 | -71.32346 | 24077 ft | 397 kts | 241° |
| 2026-05-07 02:20 | 41.35039 | -71.35402 | 24306 ft | 398 kts | 241° |
| 2026-05-07 02:21 | 41.33487 | -71.38470 | 24543 ft | 399 kts | 241° |
| 2026-05-07 02:21 | 41.31936 | -71.41535 | 24776 ft | 400 kts | 241° |
| 2026-05-07 02:21 | 41.30371 | -71.44623 | 24998 ft | 401 kts | 241° |
| 2026-05-07 02:21 | 41.28803 | -71.47716 | 25218 ft | 403 kts | 241° |
| 2026-05-07 02:22 | 41.27236 | -71.50805 | 25427 ft | 404 kts | 241° |
| 2026-05-07 02:22 | 41.25663 | -71.53901 | 25619 ft | 405 kts | 241° |
| 2026-05-07 02:22 | 41.24102 | -71.56972 | 25878 ft | 404 kts | 241° |
| 2026-05-07 02:22 | 41.22540 | -71.60036 | 26371 ft | 397 kts | 242° |
| 2026-05-07 02:23 | 41.20994 | -71.63071 | 26689 ft | 396 kts | 242° |
| 2026-05-07 02:23 | 41.19449 | -71.66105 | 26894 ft | 397 kts | 242° |
| 2026-05-07 02:23 | 41.17895 | -71.69155 | 27119 ft | 397 kts | 242° |
| 2026-05-07 02:23 | 41.16346 | -71.72186 | 27412 ft | 396 kts | 242° |
| 2026-05-07 02:24 | 41.14800 | -71.75207 | 27725 ft | 394 kts | 242° |
| 2026-05-07 02:24 | 41.13261 | -71.78219 | 27929 ft | 395 kts | 242° |
| 2026-05-07 02:24 | 41.11734 | -71.81210 | 28114 ft | 396 kts | 242° |
| 2026-05-07 02:24 | 41.10171 | -71.84271 | 28410 ft | 395 kts | 242° |
| 2026-05-07 02:25 | 41.08655 | -71.87236 | 28758 ft | 393 kts | 242° |
| 2026-05-07 02:25 | 41.07121 | -71.90236 | 29092 ft | 391 kts | 242° |
| 2026-05-07 02:25 | 41.05595 | -71.93215 | 29487 ft | 389 kts | 242° |
| 2026-05-07 02:25 | 41.04087 | -71.96162 | 29925 ft | 385 kts | 243° |
| 2026-05-07 02:26 | 41.02752 | -71.99203 | 30202 ft | 379 kts | 249° |
| 2026-05-07 02:26 | 41.01661 | -72.02361 | 30448 ft | 378 kts | 250° |
| 2026-05-07 02:26 | 41.00567 | -72.05518 | 30712 ft | 377 kts | 250° |
| 2026-05-07 02:26 | 40.99467 | -72.08663 | 30963 ft | 376 kts | 250° |
| 2026-05-07 02:27 | 40.98375 | -72.11769 | 31098 ft | 377 kts | 250° |
| 2026-05-07 02:27 | 40.97265 | -72.14918 | 31281 ft | 377 kts | 250° |
| 2026-05-07 02:27 | 40.96156 | -72.18056 | 31511 ft | 376 kts | 250° |
| 2026-05-07 02:27 | 40.95048 | -72.21189 | 31768 ft | 374 kts | 250° |
| 2026-05-07 02:28 | 40.92820 | -72.27438 | 31899 ft | 376 kts | 248° |
| 2026-05-07 02:28 | 40.89892 | -72.33202 | 31867 ft | 379 kts | 239° |
| 2026-05-07 02:29 | 40.86185 | -72.38233 | 31869 ft | 381 kts | 234° |
| 2026-05-07 02:29 | 40.82447 | -72.43110 | 31822 ft | 378 kts | 234° |
| 2026-05-07 02:30 | 40.78571 | -72.47916 | 31884 ft | 390 kts | 230° |
| 2026-05-07 02:30 | 40.74325 | -72.52462 | 31873 ft | 393 kts | 229° |
| 2026-05-07 02:31 | 40.70114 | -72.56993 | 31867 ft | 393 kts | 230° |
| 2026-05-07 02:31 | 40.65944 | -72.61630 | 31899 ft | 391 kts | 231° |
| 2026-05-07 02:32 | 40.61870 | -72.66352 | 31873 ft | 389 kts | 232° |
| 2026-05-07 02:32 | 40.57806 | -72.71055 | 31884 ft | 389 kts | 231° |
| 2026-05-07 02:33 | 40.53733 | -72.75739 | 31877 ft | 388 kts | 231° |
| 2026-05-07 02:33 | 40.49688 | -72.80374 | 31872 ft | 388 kts | 231° |
| 2026-05-07 02:34 | 40.45616 | -72.85029 | 31865 ft | 387 kts | 231° |
| 2026-05-07 02:34 | 40.41547 | -72.89674 | 31874 ft | 388 kts | 231° |
| 2026-05-07 02:35 | 40.37465 | -72.94326 | 31881 ft | 388 kts | 231° |
| 2026-05-07 02:35 | 40.33389 | -72.98964 | 31886 ft | 388 kts | 231° |
| 2026-05-07 02:36 | 40.29311 | -73.03595 | 31821 ft | 387 kts | 231° |
| 2026-05-07 02:36 | 40.25269 | -73.08178 | 31870 ft | 386 kts | 231° |
| 2026-05-07 02:37 | 40.21208 | -73.12771 | 31874 ft | 386 kts | 231° |
| 2026-05-07 02:37 | 40.17135 | -73.17370 | 31880 ft | 387 kts | 231° |
| 2026-05-07 02:38 | 40.13065 | -73.21960 | 31880 ft | 387 kts | 231° |
| 2026-05-07 02:38 | 40.08988 | -73.26548 | 31878 ft | 387 kts | 231° |
| 2026-05-07 02:39 | 40.04898 | -73.31137 | 31906 ft | 388 kts | 231° |
| 2026-05-07 02:39 | 40.00800 | -73.35725 | 31895 ft | 388 kts | 231° |
| 2026-05-07 02:40 | 39.96733 | -73.40275 | 31886 ft | 387 kts | 231° |
| 2026-05-07 02:40 | 39.92640 | -73.44848 | 31844 ft | 387 kts | 230° |
| 2026-05-07 02:41 | 39.88544 | -73.49418 | 31879 ft | 388 kts | 230° |
| 2026-05-07 02:41 | 39.84444 | -73.53982 | 31890 ft | 388 kts | 230° |
| 2026-05-07 02:42 | 39.80333 | -73.58551 | 31894 ft | 389 kts | 230° |
| 2026-05-07 02:42 | 39.76210 | -73.63125 | 31893 ft | 390 kts | 230° |
| 2026-05-07 02:43 | 39.72082 | -73.67699 | 31889 ft | 390 kts | 230° |
| 2026-05-07 02:43 | 39.67980 | -73.72238 | 31893 ft | 390 kts | 230° |
| 2026-05-07 02:44 | 39.63846 | -73.76806 | 31893 ft | 390 kts | 230° |
| 2026-05-07 02:44 | 39.59708 | -73.81369 | 31896 ft | 390 kts | 230° |
| 2026-05-07 02:45 | 39.55573 | -73.85924 | 31893 ft | 390 kts | 230° |
| 2026-05-07 02:45 | 39.51433 | -73.90475 | 31896 ft | 390 kts | 230° |
| 2026-05-07 02:46 | 39.47290 | -73.95025 | 31891 ft | 390 kts | 230° |
| 2026-05-07 02:46 | 39.43146 | -73.99567 | 31893 ft | 390 kts | 230° |
| 2026-05-07 02:47 | 39.39030 | -74.04072 | 31898 ft | 389 kts | 230° |
| 2026-05-07 02:47 | 39.34896 | -74.08596 | 31884 ft | 388 kts | 229° |
| 2026-05-07 02:48 | 39.30772 | -74.13106 | 31889 ft | 388 kts | 229° |
| 2026-05-07 02:48 | 39.26635 | -74.17624 | 31896 ft | 389 kts | 229° |
| 2026-05-07 02:49 | 39.22526 | -74.22103 | 31891 ft | 389 kts | 229° |
| 2026-05-07 02:49 | 39.18357 | -74.26639 | 31894 ft | 390 kts | 229° |
| 2026-05-07 02:50 | 39.14231 | -74.31123 | 31887 ft | 390 kts | 229° |
| 2026-05-07 02:50 | 39.10068 | -74.35640 | 31901 ft | 392 kts | 229° |
| 2026-05-07 02:51 | 39.05874 | -74.40182 | 31914 ft | 393 kts | 229° |
| 2026-05-07 02:51 | 39.01717 | -74.44677 | 31904 ft | 393 kts | 229° |
| 2026-05-07 02:52 | 38.97526 | -74.49204 | 31883 ft | 393 kts | 229° |
| 2026-05-07 02:52 | 38.93344 | -74.53724 | 31899 ft | 392 kts | 230° |
| 2026-05-07 02:53 | 38.89314 | -74.58419 | 31914 ft | 390 kts | 231° |
| 2026-05-07 02:53 | 38.85327 | -74.63148 | 31914 ft | 391 kts | 231° |
| 2026-05-07 02:54 | 38.81306 | -74.67863 | 31912 ft | 391 kts | 231° |
| 2026-05-07 02:54 | 38.77279 | -74.72561 | 31895 ft | 391 kts | 230° |
| 2026-05-07 02:55 | 38.73205 | -74.77161 | 31912 ft | 395 kts | 227° |
| 2026-05-07 02:55 | 38.68908 | -74.81615 | 31912 ft | 398 kts | 227° |
| 2026-05-07 02:56 | 38.64589 | -74.86066 | 31902 ft | 398 kts | 227° |
| 2026-05-07 02:56 | 38.60279 | -74.90539 | 31901 ft | 399 kts | 227° |
| 2026-05-07 02:57 | 38.55965 | -74.95023 | 31901 ft | 399 kts | 226° |
| 2026-05-07 02:57 | 38.51664 | -74.99521 | 31907 ft | 399 kts | 228° |
| 2026-05-07 02:58 | 38.47524 | -75.04165 | 31914 ft | 399 kts | 229° |
| 2026-05-07 02:58 | 38.43130 | -75.08568 | 31925 ft | 403 kts | 225° |
| 2026-05-07 02:59 | 38.38621 | -75.12819 | 31868 ft | 403 kts | 224° |
| 2026-05-07 02:59 | 38.34112 | -75.17076 | 31906 ft | 403 kts | 224° |
| 2026-05-07 03:00 | 38.29625 | -75.21327 | 31931 ft | 404 kts | 224° |
| 2026-05-07 03:00 | 38.25112 | -75.25604 | 31913 ft | 406 kts | 224° |
| 2026-05-07 03:01 | 38.21337 | -75.29176 | 31912 ft | 406 kts | 224° |
| 2026-05-07 03:01 | 38.16789 | -75.33473 | 31899 ft | 407 kts | 224° |
| 2026-05-07 03:02 | 38.12238 | -75.37767 | 31901 ft | 408 kts | 224° |
| 2026-05-07 03:02 | 38.07666 | -75.42073 | 31902 ft | 409 kts | 224° |
| 2026-05-07 03:03 | 38.03251 | -75.46559 | 31906 ft | 403 kts | 229° |
| 2026-05-07 03:03 | 37.99153 | -75.51407 | 31893 ft | 402 kts | 230° |
| 2026-05-07 03:04 | 37.95073 | -75.56247 | 31897 ft | 402 kts | 230° |
| 2026-05-07 03:04 | 37.90956 | -75.61082 | 31909 ft | 403 kts | 230° |
| 2026-05-07 03:05 | 37.86825 | -75.65905 | 31907 ft | 404 kts | 230° |
| 2026-05-07 03:05 | 37.82681 | -75.70731 | 31908 ft | 405 kts | 230° |
| 2026-05-07 03:06 | 37.78528 | -75.75560 | 31901 ft | 406 kts | 230° |
| 2026-05-07 03:06 | 37.74395 | -75.80358 | 31909 ft | 406 kts | 230° |
| 2026-05-07 03:07 | 37.70224 | -75.85193 | 31906 ft | 406 kts | 230° |
| 2026-05-07 03:07 | 37.66051 | -75.90024 | 31907 ft | 406 kts | 230° |
| 2026-05-07 03:08 | 37.61876 | -75.94849 | 31907 ft | 406 kts | 230° |
| 2026-05-07 03:08 | 37.58155 | -76.00025 | 31914 ft | 398 kts | 237° |
| 2026-05-07 03:09 | 37.54679 | -76.05488 | 31912 ft | 399 kts | 237° |
| 2026-05-07 03:09 | 37.51186 | -76.10930 | 31916 ft | 399 kts | 237° |
| 2026-05-07 03:10 | 37.47686 | -76.16355 | 31941 ft | 399 kts | 237° |
| 2026-05-07 03:10 | 37.45930 | -76.19073 | 31555 ft | 404 kts | 237° |
| 2026-05-07 03:10 | 37.44159 | -76.21814 | 30887 ft | 401 kts | 236° |
| 2026-05-07 03:11 | 37.42401 | -76.24529 | 30192 ft | 400 kts | 235° |
| 2026-05-07 03:11 | 37.40637 | -76.27251 | 29326 ft | 401 kts | 235° |
| 2026-05-07 03:11 | 37.38870 | -76.29975 | 28409 ft | 403 kts | 235° |
| 2026-05-07 03:11 | 37.37101 | -76.32701 | 27678 ft | 401 kts | 235° |
| 2026-05-07 03:12 | 37.35374 | -76.35357 | 27093 ft | 395 kts | 236° |
| 2026-05-07 03:12 | 37.33629 | -76.38042 | 26496 ft | 399 kts | 236° |
| 2026-05-07 03:12 | 37.31852 | -76.40781 | 25901 ft | 406 kts | 236° |
| 2026-05-07 03:12 | 37.30075 | -76.43512 | 25299 ft | 402 kts | 236° |
| 2026-05-07 03:13 | 37.28308 | -76.46221 | 24678 ft | 398 kts | 236° |
| 2026-05-07 03:13 | 37.26558 | -76.48902 | 24075 ft | 395 kts | 236° |
| 2026-05-07 03:13 | 37.24847 | -76.51539 | 23917 ft | 381 kts | 236° |
| 2026-05-07 03:13 | 37.23215 | -76.54078 | 23764 ft | 377 kts | 237° |
| 2026-05-07 03:14 | 37.21551 | -76.56689 | 23604 ft | 390 kts | 237° |
| 2026-05-07 03:14 | 37.19832 | -76.59389 | 23489 ft | 399 kts | 237° |
| 2026-05-07 03:14 | 37.16350 | -76.64824 | 23179 ft | 397 kts | 236° |
| 2026-05-07 03:15 | 37.14615 | -76.67520 | 23057 ft | 395 kts | 236° |
| 2026-05-07 03:15 | 37.12889 | -76.70202 | 22938 ft | 394 kts | 236° |
| 2026-05-07 03:15 | 37.11171 | -76.72871 | 22814 ft | 393 kts | 236° |
| 2026-05-07 03:15 | 37.09456 | -76.75534 | 22701 ft | 393 kts | 236° |
| 2026-05-07 03:16 | 37.07736 | -76.78204 | 22577 ft | 393 kts | 236° |
| 2026-05-07 03:16 | 37.06019 | -76.80866 | 22457 ft | 393 kts | 236° |
| 2026-05-07 03:16 | 37.04322 | -76.83496 | 22341 ft | 393 kts | 236° |
| 2026-05-07 03:16 | 37.02603 | -76.86158 | 22219 ft | 393 kts | 236° |
| 2026-05-07 03:17 | 37.00885 | -76.88816 | 22122 ft | 393 kts | 236° |
| 2026-05-07 03:17 | 36.99162 | -76.91479 | 21987 ft | 392 kts | 236° |
| 2026-05-07 03:17 | 36.97443 | -76.94131 | 21782 ft | 394 kts | 236° |
| 2026-05-07 03:17 | 36.95711 | -76.96800 | 21507 ft | 396 kts | 236° |
| 2026-05-07 03:18 | 36.93977 | -76.99465 | 21223 ft | 393 kts | 236° |
| 2026-05-07 03:18 | 36.92263 | -77.02094 | 20950 ft | 387 kts | 236° |
| 2026-05-07 03:18 | 36.90565 | -77.04700 | 20688 ft | 385 kts | 236° |
| 2026-05-07 03:18 | 36.88877 | -77.07293 | 20425 ft | 385 kts | 236° |
| 2026-05-07 03:19 | 36.87185 | -77.09891 | 20151 ft | 385 kts | 236° |
| 2026-05-07 03:19 | 36.85491 | -77.12488 | 19879 ft | 384 kts | 235° |
| 2026-05-07 03:19 | 36.83804 | -77.15074 | 19614 ft | 384 kts | 235° |
| 2026-05-07 03:19 | 36.82118 | -77.17656 | 19344 ft | 383 kts | 235° |
| 2026-05-07 03:20 | 36.80459 | -77.20193 | 19094 ft | 382 kts | 235° |
| 2026-05-07 03:20 | 36.78784 | -77.22750 | 18832 ft | 380 kts | 235° |
| 2026-05-07 03:20 | 36.77100 | -77.25283 | 18559 ft | 378 kts | 235° |
| 2026-05-07 03:20 | 36.75416 | -77.27789 | 18300 ft | 375 kts | 235° |
| 2026-05-07 03:21 | 36.73745 | -77.30267 | 18013 ft | 372 kts | 235° |
| 2026-05-07 03:21 | 36.72087 | -77.32726 | 17724 ft | 369 kts | 235° |
| 2026-05-07 03:21 | 36.70442 | -77.35167 | 17458 ft | 367 kts | 234° |
| 2026-05-07 03:21 | 36.68804 | -77.37598 | 17195 ft | 365 kts | 234° |
| 2026-05-07 03:22 | 36.67174 | -77.40017 | 16939 ft | 363 kts | 234° |
| 2026-05-07 03:22 | 36.65555 | -77.42420 | 16670 ft | 360 kts | 234° |
| 2026-05-07 03:22 | 36.63949 | -77.44801 | 16459 ft | 358 kts | 234° |
| 2026-05-07 03:22 | 36.62343 | -77.47184 | 16189 ft | 359 kts | 234° |
| 2026-05-07 03:23 | 36.60747 | -77.49548 | 15816 ft | 352 kts | 234° |
| 2026-05-07 03:23 | 36.59198 | -77.51838 | 15680 ft | 353 kts | 234° |
| 2026-05-07 03:23 | 36.57582 | -77.54232 | 15417 ft | 359 kts | 234° |
| 2026-05-07 03:23 | 36.55991 | -77.56587 | 15171 ft | 361 kts | 233° |
| 2026-05-07 03:24 | 36.54378 | -77.58971 | 14931 ft | 359 kts | 233° |
| 2026-05-07 03:24 | 36.52772 | -77.61340 | 14695 ft | 357 kts | 233° |
| 2026-05-07 03:24 | 36.51169 | -77.63704 | 14444 ft | 355 kts | 233° |
| 2026-05-07 03:24 | 36.49577 | -77.66049 | 14191 ft | 354 kts | 233° |
| 2026-05-07 03:25 | 36.47991 | -77.68384 | 13950 ft | 354 kts | 233° |
| 2026-05-07 03:25 | 36.46401 | -77.70725 | 13698 ft | 353 kts | 232° |
| 2026-05-07 03:25 | 36.44843 | -77.73016 | 13424 ft | 353 kts | 232° |
| 2026-05-07 03:25 | 36.43256 | -77.75348 | 13159 ft | 352 kts | 232° |
| 2026-05-07 03:26 | 36.41679 | -77.77664 | 12903 ft | 351 kts | 232° |
| 2026-05-07 03:26 | 36.40108 | -77.79970 | 12649 ft | 350 kts | 232° |
| 2026-05-07 03:26 | 36.38531 | -77.82283 | 12394 ft | 348 kts | 232° |
| 2026-05-07 03:26 | 36.36968 | -77.84575 | 12139 ft | 347 kts | 232° |
| 2026-05-07 03:27 | 36.35408 | -77.86860 | 11894 ft | 346 kts | 232° |
| 2026-05-07 03:27 | 36.33862 | -77.89123 | 11647 ft | 339 kts | 232° |
| 2026-05-07 03:27 | 36.32361 | -77.91316 | 11406 ft | 328 kts | 232° |
| 2026-05-07 03:27 | 36.30904 | -77.93445 | 11179 ft | 318 kts | 232° |
| 2026-05-07 03:28 | 36.29492 | -77.95508 | 10962 ft | 309 kts | 232° |
| 2026-05-07 03:28 | 36.28119 | -77.97516 | 10748 ft | 301 kts | 233° |
| 2026-05-07 03:28 | 36.26780 | -77.99471 | 10540 ft | 294 kts | 233° |
| 2026-05-07 03:28 | 36.25474 | -78.01376 | 10334 ft | 287 kts | 232° |
| 2026-05-07 03:29 | 36.24213 | -78.03212 | 10143 ft | 280 kts | 233° |
| 2026-05-07 03:29 | 36.23009 | -78.05073 | 9918 ft | 273 kts | 241° |
| 2026-05-07 03:29 | 36.22217 | -78.07129 | 9933 ft | 257 kts | 248° |
| 2026-05-07 03:29 | 36.21506 | -78.09113 | 9846 ft | 248 kts | 247° |
| 2026-05-07 03:30 | 36.20805 | -78.11052 | 9588 ft | 245 kts | 248° |
| 2026-05-07 03:30 | 36.20150 | -78.12989 | 9292 ft | 243 kts | 249° |
| 2026-05-07 03:30 | 36.19509 | -78.14923 | 8995 ft | 242 kts | 249° |
| 2026-05-07 03:30 | 36.18871 | -78.16850 | 8686 ft | 241 kts | 249° |
| 2026-05-07 03:31 | 36.18233 | -78.18768 | 8372 ft | 241 kts | 249° |
| 2026-05-07 03:31 | 36.17600 | -78.20666 | 8090 ft | 241 kts | 249° |
| 2026-05-07 03:31 | 36.16964 | -78.22563 | 7889 ft | 237 kts | 249° |
| 2026-05-07 03:31 | 36.16332 | -78.24444 | 7688 ft | 236 kts | 249° |
| 2026-05-07 03:32 | 36.15700 | -78.26324 | 7512 ft | 237 kts | 249° |
| 2026-05-07 03:32 | 36.15070 | -78.28213 | 7338 ft | 238 kts | 251° |
| 2026-05-07 03:32 | 36.14626 | -78.30187 | 7160 ft | 239 kts | 258° |
| 2026-05-07 03:32 | 36.14289 | -78.32204 | 6975 ft | 240 kts | 258° |
| 2026-05-07 03:33 | 36.13954 | -78.34222 | 6790 ft | 237 kts | 258° |
| 2026-05-07 03:33 | 36.13614 | -78.36200 | 6602 ft | 233 kts | 258° |
| 2026-05-07 03:33 | 36.13274 | -78.38134 | 6421 ft | 228 kts | 257° |
| 2026-05-07 03:33 | 36.12942 | -78.40003 | 6245 ft | 223 kts | 258° |
| 2026-05-07 03:34 | 36.12605 | -78.41883 | 6071 ft | 219 kts | 258° |
| 2026-05-07 03:34 | 36.12196 | -78.43667 | 5934 ft | 214 kts | 245° |
| 2026-05-07 03:34 | 36.11400 | -78.45161 | 5833 ft | 207 kts | 237° |
| 2026-05-07 03:34 | 36.10597 | -78.46575 | 5760 ft | 195 kts | 238° |
| 2026-05-07 03:35 | 36.09840 | -78.47916 | 5621 ft | 184 kts | 238° |
| 2026-05-07 03:35 | 36.09117 | -78.49202 | 5542 ft | 180 kts | 238° |
| 2026-05-07 03:35 | 36.08406 | -78.50469 | 5459 ft | 179 kts | 238° |
| 2026-05-07 03:35 | 36.07699 | -78.51730 | 5381 ft | 179 kts | 238° |
| 2026-05-07 03:36 | 36.06990 | -78.52995 | 5302 ft | 177 kts | 238° |
| 2026-05-07 03:36 | 36.06299 | -78.54225 | 5215 ft | 169 kts | 238° |
| 2026-05-07 03:36 | 36.05646 | -78.55386 | 5115 ft | 160 kts | 238° |
| 2026-05-07 03:36 | 36.05025 | -78.56490 | 5034 ft | 155 kts | 238° |
| 2026-05-07 03:37 | 36.04349 | -78.57547 | 4857 ft | 159 kts | 230° |
| 2026-05-07 03:37 | 36.03580 | -78.58505 | 4650 ft | 159 kts | 229° |
| 2026-05-07 03:37 | 36.02809 | -78.59453 | 4438 ft | 154 kts | 229° |
| 2026-05-07 03:37 | 36.02062 | -78.60375 | 4235 ft | 151 kts | 229° |
| 2026-05-07 03:38 | 36.01327 | -78.61285 | 4038 ft | 147 kts | 228° |
| 2026-05-07 03:38 | 36.00614 | -78.62167 | 3847 ft | 143 kts | 228° |
| 2026-05-07 03:38 | 35.99929 | -78.63016 | 3681 ft | 135 kts | 227° |
| 2026-05-07 03:38 | 35.99282 | -78.63818 | 3499 ft | 129 kts | 227° |
| 2026-05-07 03:39 | 35.98658 | -78.64593 | 3339 ft | 126 kts | 226° |
| 2026-05-07 03:39 | 35.98029 | -78.65372 | 3171 ft | 129 kts | 227° |
| 2026-05-07 03:39 | 35.97405 | -78.66148 | 3000 ft | 130 kts | 227° |
| 2026-05-07 03:39 | 35.96769 | -78.66935 | 2843 ft | 128 kts | 226° |
| 2026-05-07 03:40 | 35.96147 | -78.67707 | 2666 ft | 126 kts | 226° |
| 2026-05-07 03:40 | 35.95527 | -78.68494 | 2492 ft | 129 kts | 225° |
| 2026-05-07 03:40 | 35.94900 | -78.69288 | 2327 ft | 131 kts | 226° |
| 2026-05-07 03:40 | 35.94244 | -78.70093 | 2103 ft | 132 kts | 224° |
| 2026-05-07 03:41 | 35.93607 | -78.70878 | 1952 ft | 129 kts | 227° |
| 2026-05-07 03:41 | 35.92967 | -78.71703 | 1721 ft | 136 kts | 226° |
| 2026-05-07 03:41 | 35.92322 | -78.72538 | 1539 ft | 133 kts | 225° |
| 2026-05-07 03:41 | 35.91667 | -78.73337 | 1375 ft | 131 kts | 225° |
| 2026-05-07 03:42 | 35.91010 | -78.74162 | 1236 ft | 138 kts | 225° |
| 2026-05-07 03:42 | 35.90311 | -78.75017 | 1090 ft | 143 kts | 224° |
| 2026-05-07 03:42 | 35.89599 | -78.75863 | 833 ft | 147 kts | 224° |
| 2026-05-07 03:42 | 35.88891 | -78.76751 | 786 ft | 141 kts | 224° |
| 2026-05-07 03:43 | 35.88187 | -78.77606 | 588 ft | 145 kts | 224° |
| 2026-05-07 03:43 | 35.87499 | -78.78458 | 427 ft | 128 kts | 224° |
| 2026-05-07 03:43 | 35.87020 | -78.79048 | 425 ft | 67 kts | 225° |
| 2026-05-07 03:43 | 35.86827 | -78.79295 | 427 ft | 26 kts | 235° |
| 2026-05-07 03:44 | 35.86785 | -78.79451 | 437 ft | 8 kts | 269° |
| 2026-05-07 03:44 | 35.86785 | -78.79462 | 437 ft | 0 kts | 269° |
| 2026-05-07 03:44 | 35.86785 | -78.79466 | 437 ft | 3 kts | 269° |
| 2026-05-07 03:45 | 35.86795 | -78.79536 | 425 ft | 13 kts | 297° |
| 2026-05-07 03:45 | 35.86873 | -78.79641 | 429 ft | 15 kts | 316° |
| 2026-05-07 03:45 | 35.86966 | -78.79752 | 410 ft | 23 kts | 315° |
| 2026-05-07 03:45 | 35.87065 | -78.79874 | 414 ft | 18 kts | 315° |
| 2026-05-07 03:46 | 35.87164 | -78.79974 | 420 ft | 20 kts | 329° |
| 2026-05-07 03:46 | 35.87273 | -78.80047 | 424 ft | 14 kts | 335° |
| 2026-05-07 03:46 | 35.87316 | -78.80048 | 425 ft | 10 kts | 22° |
| 2026-05-07 03:46 | 35.87379 | -78.79979 | 424 ft | 15 kts | 46° |
| 2026-05-07 03:47 | 35.87461 | -78.79882 | 426 ft | 16 kts | 43° |
| 2026-05-07 03:47 | 35.87554 | -78.79768 | 418 ft | 10 kts | 45° |
| 2026-05-07 03:47 | 35.87584 | -78.79729 | 418 ft | 5 kts | 58° |
| 2026-05-07 03:47 | 35.87574 | -78.79688 | 419 ft | 3 kts | 148° |
| 2026-05-07 03:48 | 35.87561 | -78.79674 | 416 ft | 1 kts | 136° |
| 2026-05-07 03:48 | 35.87552 | -78.79663 | 420 ft | 0 kts | 134° |
| 2026-05-07 03:48 | 35.87551 | -78.79662 | 420 ft | 0 kts | 134° |
| 2026-05-07 03:48 | 35.87549 | -78.79660 | 420 ft | 0 kts | 134° |